Terminal Aerodrome Forecast
Issued by NWS Denver/Boulder, CO

Home | Current Version | Previous Version | Text Only | Print | Product List | Glossary On
Versions: 1 2 3 4 5 6 7 8 9 10 11 12 13 14 15 16 17 18 19 20 21 22 23 24 25 26 27 28 29 30 31 32 33 34 35 36 37 38 39 40 41 42 43 44 45 46 47 48 49 50
000
FTUS45 KBOU 250520
TAFDEN
TAF
KDEN 250520Z 2506/2612 14014G24KT P6SM SCT150
     FM250700 15012KT P6SM SCT150
     FM250900 18010KT P6SM SCT150
     FM251400 22007KT P6SM SCT150
     FM251700 12010KT P6SM SCT100
     FM252200 15012G20KT P6SM VCTS SCT080CB BKN140
     FM260100 18012KT P6SM FEW080 BKN140
     FM260400 21012KT P6SM SCT140=

USA.gov is the U.S. government's official web portal to all federal, state and local government web resources and services.